Time;durP1;ratioP1;P1;durP2;ratioP2;P2;SDS_P1;SDS_P2;PMS_P1;PMS_P2;Temp;Humidity;BMP_temperature;BMP_pressure;BME280_temperature;BME280_humidity;BME280_pressure;Samples;Min_cycle;Max_cycle;Signal;HPM_P1;HPM_P2
2023/06/11 00:01:20;;;;;;;6.95;3.90;;;;;;;15.19;62.11;96965.47;6288742;28;20049;-60
2023/06/11 00:04:25;;;;;;;5.20;4.10;;;;;;;15.21;62.11;96963.56;6291040;28;20128;-59
2023/06/11 00:07:27;;;;;;;7.75;4.43;;;;;;;15.20;62.17;96962.72;6285284;28;20063;-60
2023/06/11 00:10:32;;;;;;;5.22;4.30;;;;;;;15.20;62.26;96968.00;6288004;28;20573;-60
2023/06/11 00:13:36;;;;;;;10.57;4.32;;;;;;;15.22;62.26;96966.06;6290086;28;20190;-60
2023/06/11 00:16:40;;;;;;;9.20;3.90;;;;;;;15.23;62.02;96964.28;6290553;28;20575;-60
2023/06/11 00:19:42;;;;;;;6.28;4.15;;;;;;;15.27;62.08;96969.19;6286981;28;20041;-60
2023/06/11 00:22:45;;;;;;;6.47;4.20;;;;;;;15.28;61.94;96977.97;6290011;28;20045;-60
2023/06/11 00:25:47;;;;;;;5.50;4.47;;;;;;;15.27;62.04;96985.09;6289930;28;20104;-59
2023/06/11 00:28:50;;;;;;;7.03;3.83;;;;;;;15.18;62.24;96964.66;6284213;28;20037;-60
2023/06/11 00:31:52;;;;;;;13.40;4.55;;;;;;;15.16;62.35;96969.22;6260935;28;20484;-60
2023/06/11 00:34:56;;;;;;;9.45;4.43;;;;;;;15.15;62.51;96969.34;6276994;28;20462;-59
2023/06/11 00:38:00;;;;;;;6.97;3.83;;;;;;;15.15;62.34;96959.59;6274045;28;20033;-60
2023/06/11 00:41:04;;;;;;;4.15;2.72;;;;;;;15.24;61.97;96968.59;6283596;28;20048;-59
2023/06/11 00:44:17;;;;;;;8.98;3.50;;;;;;;15.34;61.87;96968.66;6291243;28;20048;-59
2023/06/11 00:47:21;;;;;;;6.78;3.60;;;;;;;15.38;61.73;96964.81;6290213;28;20063;-59
2023/06/11 00:50:25;;;;;;;6.32;3.40;;;;;;;15.43;61.68;96971.41;6286568;28;20045;-60
2023/06/11 00:53:27;;;;;;;6.32;3.90;;;;;;;15.42;61.86;96966.22;6287736;28;20047;-60
2023/06/11 00:56:34;;;;;;;5.88;4.13;;;;;;;15.44;61.53;96966.94;6287655;28;20055;-60
2023/06/11 00:59:37;;;;;;;10.18;4.82;;;;;;;15.49;61.35;96968.25;6287994;28;20056;-60
2023/06/11 01:02:44;;;;;;;8.23;4.80;;;;;;;15.62;61.10;96969.88;6286535;28;20037;-60
2023/06/11 01:05:53;;;;;;;10.10;4.80;;;;;;;15.73;60.81;96974.31;6278571;28;20040;-60
2023/06/11 01:09:01;;;;;;;12.32;4.72;;;;;;;15.85;60.71;96967.97;6291483;28;20500;-60
2023/06/11 01:12:08;;;;;;;3.78;3.42;;;;;;;15.99;60.27;96962.31;6285734;28;20072;-60
2023/06/11 01:15:14;;;;;;;3.97;2.90;;;;;;;16.15;59.65;96960.03;6288549;28;20515;-60
2023/06/11 01:18:28;;;;;;;3.63;3.22;;;;;;;16.30;59.34;96959.69;6282431;28;20040;-60
2023/06/11 01:21:41;;;;;;;3.38;3.08;;;;;;;16.44;59.28;96964.66;6283742;28;20041;-60
2023/06/11 01:25:13;;;;;;;4.93;2.97;;;;;;;16.54;58.97;96962.03;6293337;28;20052;-59
2023/06/11 01:28:22;;;;;;;7.38;4.18;;;;;;;16.59;58.43;96963.31;6290007;28;20051;-60
2023/06/11 01:31:25;;;;;;;5.63;2.92;;;;;;;16.61;58.52;96966.66;6258301;28;20045;-60
2023/06/11 01:34:32;;;;;;;4.25;3.03;;;;;;;16.66;58.31;96974.25;6292495;28;20044;-60
2023/06/11 01:37:33;;;;;;;;;;;;;;;16.66;58.28;96978.72;6271694;28;20047;-60
2023/06/11 01:40:34;;;;;;;4.03;3.00;;;;;;;16.57;58.50;96970.56;6294449;28;19920;-60
2023/06/11 01:43:37;;;;;;;5.88;3.58;;;;;;;16.48;58.84;96968.72;6294144;28;20083;-60
2023/06/11 01:46:44;;;;;;;4.57;3.03;;;;;;;16.49;58.94;96973.06;6290907;28;20495;-61
2023/06/11 01:49:45;;;;;;;3.08;2.42;;;;;;;16.48;59.06;96979.34;6290675;28;20763;-60
2023/06/11 01:52:47;;;;;;;3.45;2.75;;;;;;;16.46;59.18;96973.31;6289940;28;20056;-60
2023/06/11 01:55:56;;;;;;;4.55;3.03;;;;;;;16.52;59.31;96972.78;6291716;28;20423;-59
2023/06/11 01:59:00;;;;;;;4.00;2.95;;;;;;;16.53;59.10;96974.50;6279392;28;20131;-59
2023/06/11 02:02:01;;;;;;;3.63;2.63;;;;;;;16.53;59.27;96974.50;6290945;28;20036;-59
2023/06/11 02:05:06;;;;;;;4.40;2.92;;;;;;;16.59;58.86;96971.28;6293666;28;20044;-60
2023/06/11 02:08:07;;;;;;;4.45;3.03;;;;;;;16.65;58.91;96971.72;6290451;28;20044;-60
2023/06/11 02:11:11;;;;;;;5.97;3.20;;;;;;;16.77;58.82;96978.66;6292725;28;20036;-60
2023/06/11 02:14:15;;;;;;;5.80;3.65;;;;;;;16.88;58.78;96983.84;6291519;28;20047;-60
2023/06/11 02:17:19;;;;;;;5.28;3.78;;;;;;;16.94;59.01;96988.63;6290273;28;20040;-60
2023/06/11 02:20:25;;;;;;;3.83;3.28;;;;;;;17.03;59.07;97003.75;6290634;28;20048;-60
2023/06/11 02:23:28;;;;;;;4.18;3.15;;;;;;;17.10;59.46;97003.19;6286801;28;20452;-60
2023/06/11 02:26:32;;;;;;;4.00;3.20;;;;;;;17.15;59.29;96993.81;6289830;28;20048;-60
2023/06/11 02:29:34;;;;;;;5.22;3.42;;;;;;;17.27;59.20;97005.22;6274890;28;20041;-60
2023/06/11 02:32:41;;;;;;;6.55;3.17;;;;;;;17.34;58.34;97006.31;6285598;28;20037;-60
2023/06/11 02:35:45;;;;;;;3.05;2.53;;;;;;;17.46;57.59;97005.19;6286689;28;20504;-59
2023/06/11 02:38:46;;;;;;;4.68;3.05;;;;;;;17.61;57.10;97003.00;6281746;28;20048;-59
2023/06/11 02:41:53;;;;;;;5.07;2.92;;;;;;;17.79;56.84;96995.16;6292710;28;20495;-60
2023/06/11 02:44:57;;;;;;;3.88;2.92;;;;;;;18.06;56.20;97001.56;6283919;28;20056;-60
2023/06/11 02:48:01;;;;;;;3.33;2.25;;;;;;;18.32;55.14;96986.66;6289173;28;20033;-60
2023/06/11 02:51:02;;;;;;;3.13;2.38;;;;;;;18.65;54.00;96997.72;6288648;28;20512;-60
2023/06/11 02:54:04;;;;;;;4.82;2.40;;;;;;;18.91;53.09;97005.94;6286080;28;20048;-60
2023/06/11 02:57:08;;;;;;;3.25;2.58;;;;;;;19.00;52.39;97012.22;6289374;28;20057;-60
2023/06/11 03:00:10;;;;;;;3.50;2.45;;;;;;;18.96;52.22;97000.16;6287674;28;20059;-60
2023/06/11 03:03:14;;;;;;;2.35;2.15;;;;;;;19.05;51.89;97015.25;6287961;28;20049;-60
2023/06/11 03:06:17;;;;;;;2.97;2.38;;;;;;;19.03;52.10;97014.59;6288906;28;20424;-60
2023/06/11 03:09:18;;;;;;;4.00;3.10;;;;;;;19.05;52.18;97028.59;6287362;28;20163;-61
2023/06/11 03:12:24;;;;;;;4.82;2.63;;;;;;;19.07;52.43;97032.78;6290097;28;20045;-60
2023/06/11 03:15:25;;;;;;;3.97;2.75;;;;;;;19.16;51.83;97025.72;6284153;28;20048;-60
2023/06/11 03:18:29;;;;;;;3.35;2.17;;;;;;;19.31;51.07;97019.91;6286791;28;20053;-59
2023/06/11 03:21:35;;;;;;;3.92;2.47;;;;;;;19.46;50.02;97029.06;6288398;28;20040;-59
2023/06/11 03:24:36;;;;;;;;;;;;;;;19.69;49.06;97024.97;6281017;28;20507;-60
2023/06/11 03:27:37;;;;;;;3.10;2.80;;;;;;;19.78;48.31;97017.03;6288891;28;19920;-60
2023/06/11 03:30:39;;;;;;;4.00;2.38;;;;;;;19.92;47.42;97016.50;6283136;28;20036;-60
2023/06/11 03:33:42;;;;;;;8.05;3.10;;;;;;;20.00;46.62;97024.56;6289767;28;20203;-60
2023/06/11 03:36:44;;;;;;;4.00;2.72;;;;;;;20.09;45.96;97014.78;6287167;28;20044;-60
2023/06/11 03:39:47;;;;;;;4.40;2.55;;;;;;;20.13;46.00;97022.34;6288194;28;20048;-60
2023/06/11 03:42:54;;;;;;;3.33;2.42;;;;;;;20.23;45.79;97021.41;6292603;28;20056;-61
2023/06/11 03:46:03;;;;;;;4.57;2.40;;;;;;;20.30;46.07;97023.31;6268781;28;20126;-60
2023/06/11 03:49:07;;;;;;;4.88;2.67;;;;;;;20.40;45.64;97017.84;6276420;28;20134;-60
2023/06/11 03:52:12;;;;;;;5.95;3.17;;;;;;;20.42;45.68;97021.22;6292186;28;20177;-59
2023/06/11 03:55:16;;;;;;;4.15;2.63;;;;;;;20.51;45.69;97019.41;6289689;28;20063;-60
2023/06/11 03:58:17;;;;;;;4.18;2.58;;;;;;;20.59;45.71;97022.19;6287188;28;20056;-60
2023/06/11 04:01:23;;;;;;;5.22;2.97;;;;;;;20.65;45.40;97026.06;6285506;28;20467;-59
2023/06/11 04:04:27;;;;;;;3.17;2.70;;;;;;;20.82;44.98;97025.13;6287497;28;20423;-60
2023/06/11 04:07:29;;;;;;;5.28;2.78;;;;;;;20.89;44.87;97007.47;6287659;28;20527;-61
2023/06/11 04:10:37;;;;;;;6.18;2.60;;;;;;;21.06;44.21;97029.75;6283045;28;20036;-60
2023/06/11 04:13:49;;;;;;;3.58;2.33;;;;;;;21.13;43.67;97029.94;6289437;28;20045;-61
2023/06/11 04:16:50;;;;;;;3.60;2.10;;;;;;;21.27;43.01;97018.63;6282871;28;20052;-60
2023/06/11 04:19:52;;;;;;;3.30;2.25;;;;;;;21.44;42.21;97023.03;6282614;28;20040;-61
2023/06/11 04:23:00;;;;;;;2.88;2.00;;;;;;;21.57;41.85;97019.03;6286481;28;20127;-60
2023/06/11 04:26:09;;;;;;;4.50;2.00;;;;;;;21.64;41.25;97022.75;6289709;28;20045;-60
2023/06/11 04:29:10;;;;;;;3.40;1.83;;;;;;;21.71;41.23;97023.75;6284150;28;20048;-59
2023/06/11 04:32:11;;;;;;;3.05;2.00;;;;;;;21.95;40.51;97029.13;6284439;28;20040;-60
2023/06/11 04:35:16;;;;;;;1.83;1.70;;;;;;;22.32;39.76;97027.81;6280289;28;20776;-60
2023/06/11 04:38:24;;;;;;;2.30;1.90;;;;;;;22.51;39.77;97036.53;6280946;28;20471;-63
2023/06/11 04:41:26;;;;;;;2.50;2.10;;;;;;;22.77;39.20;97031.75;6287779;28;20048;-64
2023/06/11 04:44:28;;;;;;;3.30;1.75;;;;;;;23.65;37.40;97024.50;6285008;28;20048;-63
2023/06/11 04:47:33;;;;;;;2.00;1.80;;;;;;;26.11;32.94;97030.75;6290199;28;20044;-64
2023/06/11 04:50:37;;;;;;;2.05;1.38;;;;;;;28.94;29.43;97035.78;6289523;28;20099;-64
2023/06/11 04:53:42;;;;;;;1.50;1.40;;;;;;;31.39;26.13;97037.09;6280603;28;20040;-63
2023/06/11 04:56:44;;;;;;;2.63;1.50;;;;;;;33.43;24.10;97039.56;6294659;28;20415;-63
2023/06/11 04:59:49;;;;;;;3.33;1.70;;;;;;;35.96;21.62;97041.44;6294560;28;20083;-63
2023/06/11 05:02:53;;;;;;;1.98;1.35;;;;;;;38.74;19.27;97032.50;6292461;28;20044;-66
2023/06/11 05:05:55;;;;;;;;;;;;;;;41.98;18.61;97040.19;6295182;28;20041;-64
2023/06/11 05:08:56;;;;;;;1.48;0.75;;;;;;;43.07;15.81;97041.78;6274406;28;20014;-64
2023/06/11 05:12:00;;;;;;;5.53;1.38;;;;;;;44.41;13.79;97042.63;6291261;28;20566;-63
2023/06/11 05:15:01;;;;;;;1.15;1.00;;;;;;;45.06;12.73;97041.25;6295333;28;20043;-64
2023/06/11 05:18:05;;;;;;;1.00;0.82;;;;;;;45.63;11.91;97041.38;6288011;28;20076;-64
2023/06/11 05:21:12;;;;;;;0.90;0.90;;;;;;;45.77;11.28;97036.50;6293216;28;20158;-63
2023/06/11 05:24:19;;;;;;;1.10;1.00;;;;;;;46.21;11.12;97040.19;6275967;28;20049;-65
2023/06/11 05:27:24;;;;;;;1.48;0.90;;;;;;;46.67;10.38;97035.94;6293165;28;20050;-64
2023/06/11 05:30:39;;;;;;;2.08;0.70;;;;;;;46.66;10.24;97034.31;6292891;28;20037;-64
2023/06/11 05:33:40;;;;;;;1.75;0.77;;;;;;;46.49;10.25;97028.75;6286378;28;20055;-63
2023/06/11 05:36:42;;;;;;;0.80;0.73;;;;;;;47.14;9.80;97033.22;6288648;28;20040;-64
2023/06/11 05:39:50;;;;;;;0.77;0.65;;;;;;;47.19;9.61;97035.81;6271899;28;20037;-64
2023/06/11 05:42:55;;;;;;;0.88;0.70;;;;;;;47.59;9.86;97038.28;6289840;28;20060;-64
2023/06/11 05:45:59;;;;;;;1.83;0.90;;;;;;;48.31;9.08;97041.13;6270221;28;20416;-64
2023/06/11 05:49:06;;;;;;;1.17;0.85;;;;;;;49.36;9.10;97035.31;6275388;28;20044;-63
2023/06/11 05:52:13;;;;;;;1.33;0.50;;;;;;;50.25;8.48;97031.72;6280548;28;20504;-63
2023/06/11 05:55:19;;;;;;;1.40;0.82;;;;;;;49.41;8.67;97043.47;6296145;28;20040;-63
2023/06/11 05:58:25;;;;;;;1.52;0.65;;;;;;;47.09;9.60;97019.47;6283961;28;20123;-65
2023/06/11 06:01:34;;;;;;;1.40;1.00;;;;;;;45.08;11.28;97036.22;6295556;28;20056;-63
2023/06/11 06:04:36;;;;;;;3.05;0.80;;;;;;;42.84;12.80;97026.97;6290294;28;20182;-63
2023/06/11 06:07:40;;;;;;;1.15;0.98;;;;;;;41.48;13.28;97021.22;6292890;28;20499;-64
2023/06/11 06:10:46;;;;;;;1.20;0.85;;;;;;;41.47;13.39;97017.59;6287005;28;20495;-64
2023/06/11 06:13:52;;;;;;;2.55;1.00;;;;;;;41.24;13.29;97019.25;6288871;28;20040;-64
2023/06/11 06:16:55;;;;;;;1.65;0.65;;;;;;;42.90;12.75;97009.16;6294138;28;20411;-64
2023/06/11 06:20:00;;;;;;;1.58;1.17;;;;;;;45.52;11.39;97026.13;6289256;28;20037;-64
2023/06/11 06:23:08;;;;;;;1.33;0.80;;;;;;;48.16;9.66;97033.34;6285463;28;20044;-64
2023/06/11 06:26:12;;;;;;;2.22;0.93;;;;;;;50.26;8.74;97028.59;6294585;28;20044;-64
2023/06/11 06:29:17;;;;;;;1.50;0.80;;;;;;;52.35;7.72;97029.13;6283993;28;20037;-64
2023/06/11 06:32:24;;;;;;;1.85;0.80;;;;;;;53.80;6.81;97035.81;6285902;28;20142;-64
2023/06/11 06:35:33;;;;;;;1.85;0.43;;;;;;;54.64;6.55;97036.59;6291453;28;20062;-64
2023/06/11 06:38:38;;;;;;;0.90;0.63;;;;;;;54.20;6.33;97025.94;6291318;28;20044;-64
2023/06/11 06:41:45;;;;;;;1.42;0.50;;;;;;;54.64;5.92;97022.50;6295151;28;20044;-63
2023/06/11 06:44:51;;;;;;;2.03;0.60;;;;;;;54.48;6.33;97019.06;6283037;28;20052;-65
2023/06/11 06:47:53;;;;;;;0.95;0.50;;;;;;;54.69;6.47;97027.78;6287759;28;20050;-63
2023/06/11 06:50:57;;;;;;;1.52;0.55;;;;;;;54.61;5.82;97037.31;6289764;28;20040;-63
2023/06/11 06:54:03;;;;;;;0.73;0.65;;;;;;;55.34;6.01;97032.06;6288348;28;20045;-64
2023/06/11 06:57:07;;;;;;;0.80;0.70;;;;;;;55.45;5.69;97020.88;6293913;28;20055;-64
2023/06/11 07:00:09;;;;;;;1.30;0.40;;;;;;;54.49;6.05;97026.31;6288473;28;20131;-67
2023/06/11 07:03:16;;;;;;;1.77;0.70;;;;;;;55.16;6.02;97025.44;6285740;28;20044;-64
2023/06/11 07:06:24;;;;;;;1.23;0.55;;;;;;;55.15;5.72;97018.16;6281993;28;20135;-64
2023/06/11 07:09:28;;;;;;;1.40;0.43;;;;;;;55.40;5.57;97018.41;6290006;28;20040;-64
2023/06/11 07:12:36;;;;;;;0.90;0.70;;;;;;;56.18;5.26;97012.50;6304921;28;20106;-64
2023/06/11 07:15:42;;;;;;;3.55;0.80;;;;;;;54.44;5.72;97018.19;6299427;28;20044;-63
2023/06/11 07:18:49;;;;;;;0.80;0.77;;;;;;;51.03;7.14;96985.53;6282332;28;20053;-65
2023/06/11 07:21:56;;;;;;;1.13;0.75;;;;;;;48.28;8.62;96986.00;6287399;28;20059;-63
2023/06/11 07:25:01;;;;;;;1.88;0.80;;;;;;;45.51;10.14;96960.56;6282502;28;20052;-70
2023/06/11 07:28:06;;;;;;;0.93;0.85;;;;;;;43.17;11.41;96952.97;6285226;28;20130;-71
2023/06/11 07:31:10;;;;;;;1.27;0.70;;;;;;;41.27;13.03;96951.56;6290493;28;20048;-69
2023/06/11 07:34:16;;;;;;;1.00;0.90;;;;;;;39.58;14.17;96950.25;6285767;28;20040;-71
2023/06/11 07:37:20;;;;;;;4.60;1.50;;;;;;;38.32;14.90;96951.09;6284833;28;20526;-71
2023/06/11 07:40:28;;;;;;;3.47;1.30;;;;;;;38.69;15.18;96938.16;6287612;28;20083;-70
2023/06/11 07:43:35;;;;;;;2.55;1.00;;;;;;;39.39;14.81;96946.50;6284915;28;20063;-70
2023/06/11 07:46:43;;;;;;;5.50;1.23;;;;;;;40.56;14.12;96942.09;6285450;28;20581;-70
2023/06/11 07:49:47;;;;;;;1.38;0.98;;;;;;;43.20;12.16;96941.31;6281890;28;20045;-71
2023/06/11 07:52:56;;;;;;;2.90;1.05;;;;;;;45.35;10.91;96946.28;6288091;28;20056;-70
2023/06/11 07:56:03;;;;;;;1.52;1.20;;;;;;;45.60;10.38;96941.97;6289182;28;20040;-70
2023/06/11 07:59:05;;;;;;;0.80;0.77;;;;;;;44.81;11.05;96949.19;6287856;28;20028;-71
2023/06/11 08:02:12;;;;;;;1.92;1.20;;;;;;;43.88;11.70;96938.72;6280908;28;20071;-71
2023/06/11 08:05:19;;;;;;;3.30;1.10;;;;;;;43.17;12.15;96941.09;6282531;28;20126;-70
2023/06/11 08:08:24;;;;;;;2.17;1.20;;;;;;;43.19;12.30;96942.44;6285261;28;20415;-71
2023/06/11 08:11:28;;;;;;;1.83;1.35;;;;;;;42.38;13.01;96937.28;6274789;28;20052;-70
2023/06/11 08:14:37;;;;;;;2.15;1.30;;;;;;;42.82;12.35;96940.66;6282227;28;20044;-70
2023/06/11 08:17:45;;;;;;;2.50;1.20;;;;;;;40.99;13.76;96934.78;6274700;28;20125;-70
2023/06/11 08:20:47;;;;;;;1.42;1.33;;;;;;;38.78;15.53;96926.31;6292671;28;20056;-70
2023/06/11 08:23:57;;;;;;;2.75;1.20;;;;;;;36.42;17.52;96922.13;6291765;28;20037;-70
2023/06/11 08:26:58;;;;;;;2.33;2.10;;;;;;;35.16;18.67;96928.00;6277793;28;20071;-71
2023/06/11 08:30:03;;;;;;;1.60;1.50;;;;;;;34.31;19.52;96922.72;6296441;28;20079;-70
2023/06/11 08:33:11;;;;;;;2.65;1.60;;;;;;;33.20;20.94;96922.34;6290424;28;21028;-69
2023/06/11 08:36:17;;;;;;;3.00;1.75;;;;;;;32.42;22.23;96916.28;6298080;28;20044;-71
2023/06/11 08:39:22;;;;;;;2.03;1.50;;;;;;;31.59;22.73;96919.91;6275861;28;20060;-72
2023/06/11 08:42:23;;;;;;;2.03;1.83;;;;;;;30.64;24.06;96927.53;6279768;28;20040;-68
2023/06/11 08:45:29;;;;;;;2.58;1.85;;;;;;;30.03;24.98;96925.56;6278180;28;20055;-68
2023/06/11 08:48:40;;;;;;;5.80;2.25;;;;;;;29.45;27.02;96923.88;6281870;28;20896;-69
2023/06/11 08:51:42;;;;;;;2.15;1.70;;;;;;;29.58;28.16;96922.13;6280238;28;20047;-69
2023/06/11 08:54:46;;;;;;;2.40;2.07;;;;;;;29.82;28.32;96923.25;6283721;28;20434;-68
2023/06/11 08:57:50;;;;;;;4.03;1.90;;;;;;;29.78;28.42;96936.44;6286562;28;20466;-72
2023/06/11 09:00:58;;;;;;;5.15;2.30;;;;;;;29.37;28.37;96934.97;6278921;28;20392;-72
2023/06/11 09:04:02;;;;;;;4.95;2.63;;;;;;;28.74;29.28;96922.09;6287427;28;20527;-75
2023/06/11 09:07:09;;;;;;;6.32;2.95;;;;;;;27.90;30.38;96920.09;6286081;28;20036;-74
2023/06/11 09:10:15;;;;;;;5.53;2.55;;;;;;;27.82;31.45;96934.66;6292185;28;20040;-70
2023/06/11 09:13:18;;;;;;;5.70;3.05;;;;;;;27.63;33.17;96944.41;6292546;28;20186;-72
2023/06/11 09:16:25;;;;;;;3.45;2.22;;;;;;;27.46;33.22;96945.78;6285218;28;20045;-74
2023/06/11 09:19:26;;;;;;;9.48;2.95;;;;;;;27.35;33.03;96941.00;6285510;28;20044;-74
2023/06/11 09:22:27;;;;;;;13.00;2.58;;;;;;;27.21;32.92;96943.66;6284835;28;20044;-69
2023/06/11 09:25:33;;;;;;;7.32;2.50;;;;;;;27.06;32.59;96945.63;6294324;28;20041;-69
2023/06/11 09:28:40;;;;;;;6.50;2.50;;;;;;;26.87;33.10;96958.03;6286300;28;20127;-71
2023/06/11 09:31:47;;;;;;;5.50;3.22;;;;;;;26.76;32.84;96951.34;6293368;28;20041;-70
2023/06/11 09:34:55;;;;;;;4.57;2.20;;;;;;;26.61;33.30;96947.91;6292499;28;20370;-69
2023/06/11 09:37:59;;;;;;;8.65;4.60;;;;;;;26.37;33.69;96941.94;6276873;28;20589;-70
2023/06/11 09:41:04;;;;;;;8.15;3.10;;;;;;;26.25;33.79;96954.31;6290908;28;20194;-72
2023/06/11 09:44:08;;;;;;;9.88;2.90;;;;;;;25.91;34.17;96957.78;6296374;28;20420;-73
2023/06/11 09:47:15;;;;;;;7.25;2.25;;;;;;;25.48;35.10;96968.53;6295877;28;20131;-74
2023/06/11 09:50:21;;;;;;;5.32;2.53;;;;;;;25.10;35.31;96960.59;6296480;28;20411;-74
2023/06/11 09:53:28;;;;;;;6.10;2.72;;;;;;;24.93;36.18;96965.34;6296505;28;20140;-74
2023/06/11 09:56:35;;;;;;;8.85;2.78;;;;;;;24.96;36.79;96981.13;6296312;28;20131;-74
2023/06/11 09:59:40;;;;;;;3.38;2.70;;;;;;;25.09;36.35;96991.22;6303825;28;20040;-73
2023/06/11 10:02:42;;;;;;;5.00;2.28;;;;;;;25.12;36.28;96985.47;6273745;28;20154;-74
2023/06/11 10:05:50;;;;;;;4.50;2.42;;;;;;;25.28;35.90;96979.91;6294552;28;20045;-74
2023/06/11 10:09:01;;;;;;;4.65;2.45;;;;;;;25.45;35.37;96983.19;6294000;28;20257;-74
2023/06/11 10:12:07;;;;;;;;;;;;;;;25.87;34.73;96995.03;6295539;28;20044;-74
2023/06/11 10:15:11;;;;;;;6.10;3.00;;;;;;;25.87;35.09;96995.03;6295956;28;19920;-74
2023/06/11 10:18:16;;;;;;;7.78;2.80;;;;;;;25.95;34.74;96992.22;6296141;28;20032;-74
2023/06/11 10:21:20;;;;;;;7.68;3.20;;;;;;;25.74;34.90;96990.34;6294016;28;20056;-74
2023/06/11 10:24:23;;;;;;;8.75;3.10;;;;;;;25.74;35.09;96984.13;6295047;28;20095;-73
2023/06/11 10:27:41;;;;;;;8.48;2.88;;;;;;;25.83;34.37;96991.06;6296008;28;20525;-74
2023/06/11 10:30:53;;;;;;;5.78;2.97;;;;;;;25.72;34.49;96997.78;6277131;28;20135;-73
2023/06/11 10:34:07;;;;;;;7.10;3.13;;;;;;;25.52;34.86;96992.19;6294480;28;20499;-75
2023/06/11 10:37:12;;;;;;;7.05;2.80;;;;;;;25.43;34.54;96993.31;6295135;28;20040;-73
2023/06/11 10:40:17;;;;;;;3.30;2.28;;;;;;;25.43;35.03;96997.88;6294113;28;20048;-73
2023/06/11 10:43:23;;;;;;;9.50;2.67;;;;;;;25.47;34.70;97008.06;6295021;28;20435;-74
2023/06/11 10:46:27;;;;;;;6.40;2.33;;;;;;;25.60;34.40;96998.50;6294299;28;20144;-74
2023/06/11 10:49:31;;;;;;;4.85;2.53;;;;;;;25.69;33.88;97005.41;6293790;28;20044;-74
2023/06/11 10:52:57;;;;;;;9.38;2.47;;;;;;;25.89;34.00;97009.16;6295108;28;20649;-73
2023/06/11 10:55:59;;;;;;;5.57;2.80;;;;;;;26.18;33.53;97001.97;6293421;28;20143;-73
2023/06/11 10:59:10;;;;;;;6.60;2.85;;;;;;;26.57;32.64;97003.31;6294874;28;20036;-73
2023/06/11 11:02:16;;;;;;;8.70;3.05;;;;;;;27.19;32.06;97010.56;6295149;28;20136;-73
2023/06/11 11:05:25;;;;;;;5.55;1.95;;;;;;;27.52;31.07;97009.88;6300923;28;20037;-73
2023/06/11 11:08:32;;;;;;;7.43;3.15;;;;;;;27.15;31.40;97005.72;6307467;28;20041;-73
2023/06/11 11:11:38;;;;;;;4.75;2.33;;;;;;;26.91;32.64;96999.78;6295805;28;20055;-70
2023/06/11 11:14:46;;;;;;;4.05;2.55;;;;;;;27.76;32.52;97003.03;6290129;28;20040;-70
2023/06/11 11:17:55;;;;;;;6.05;2.65;;;;;;;28.27;32.10;97017.91;6286669;28;20271;-69
2023/06/11 11:21:00;;;;;;;7.05;2.13;;;;;;;28.28;32.29;97014.16;6292661;28;20048;-68
2023/06/11 11:24:12;;;;;;;7.35;2.45;;;;;;;28.29;32.29;97013.13;6276447;28;20503;-69
2023/06/11 11:27:13;;;;;;;3.15;2.03;;;;;;;28.26;32.03;97013.56;6289620;28;20040;-70
2023/06/11 11:30:18;;;;;;;4.45;2.35;;;;;;;28.16;32.09;97016.66;6289788;28;20549;-69
2023/06/11 11:33:21;;;;;;;4.50;2.20;;;;;;;27.89;32.57;97015.81;6282886;28;20071;-70
2023/06/11 11:36:26;;;;;;;4.18;2.40;;;;;;;27.67;32.81;97024.03;6292002;28;20132;-69
2023/06/11 11:39:31;;;;;;;3.30;2.63;;;;;;;27.76;32.91;97017.41;6289278;28;20048;-70
2023/06/11 11:42:57;;;;;;;3.33;2.30;;;;;;;27.42;32.78;97026.44;6288842;28;20414;-71
2023/06/11 11:46:02;;;;;;;5.28;2.80;;;;;;;26.73;33.92;97035.41;6287455;28;20055;-71
2023/06/11 11:49:12;;;;;;;7.57;3.00;;;;;;;26.09;34.63;97039.00;6292880;28;20076;-70
2023/06/11 11:52:23;;;;;;;4.75;3.17;;;;;;;25.63;35.70;97030.44;6286096;28;20044;-70
2023/06/11 11:55:30;;;;;;;4.10;2.83;;;;;;;25.32;36.17;97039.59;6292318;28;20449;-70
2023/06/11 11:58:37;;;;;;;6.20;3.05;;;;;;;25.26;36.62;97040.38;6269457;28;20052;-72
2023/06/11 12:01:58;;;;;;;6.03;2.92;;;;;;;25.29;36.67;97040.81;6308253;28;20051;-70
2023/06/11 12:05:00;;;;;;;8.13;2.75;;;;;;;25.38;36.01;97036.16;6284026;28;20044;-70
2023/06/11 12:08:05;;;;;;;5.82;3.05;;;;;;;25.19;36.50;97050.19;6291793;28;20568;-70
2023/06/11 12:11:11;;;;;;;6.30;2.92;;;;;;;25.13;36.65;97040.16;6290129;28;20048;-70
2023/06/11 12:14:14;;;;;;;5.70;2.92;;;;;;;25.58;35.86;97028.31;6291457;28;20040;-69
2023/06/11 12:17:16;;;;;;;6.55;3.17;;;;;;;25.69;35.71;97040.44;6290967;28;20044;-70
2023/06/11 12:20:21;;;;;;;5.53;3.38;;;;;;;25.82;35.54;97035.22;6291481;28;20051;-70
2023/06/11 12:23:27;;;;;;;8.10;3.90;;;;;;;26.02;35.22;97035.44;6292453;28;20048;-70
2023/06/11 12:26:33;;;;;;;7.75;3.80;;;;;;;25.65;35.97;97033.78;6292871;28;20407;-71
2023/06/11 12:29:40;;;;;;;6.05;4.05;;;;;;;25.22;36.48;97029.13;6292114;28;20041;-69
2023/06/11 12:32:44;;;;;;;7.25;4.53;;;;;;;25.31;36.51;97043.34;6291831;28;20048;-70
2023/06/11 12:35:55;;;;;;;8.73;3.65;;;;;;;25.52;36.16;97035.28;6292805;28;20045;-69
2023/06/11 12:39:01;;;;;;;8.63;4.03;;;;;;;25.59;35.57;97030.00;6291523;28;20055;-70
2023/06/11 12:42:06;;;;;;;7.53;4.40;;;;;;;25.49;35.94;97022.19;6292303;28;20049;-71
2023/06/11 12:45:08;;;;;;;9.47;4.80;;;;;;;25.32;36.58;97028.84;6291089;28;20458;-71
2023/06/11 12:48:09;;;;;;;8.90;6.00;;;;;;;25.21;36.99;97038.22;6291776;28;20526;-71
2023/06/11 12:51:16;;;;;;;9.55;5.25;;;;;;;25.10;37.13;97036.81;6292976;28;20043;-69
2023/06/11 12:54:25;;;;;;;9.60;5.35;;;;;;;24.93;36.63;97035.31;6283761;28;20646;-70
2023/06/11 12:57:36;;;;;;;9.98;4.80;;;;;;;25.00;36.76;97036.28;6277428;28;20045;-70
2023/06/11 13:00:42;;;;;;;12.50;5.45;;;;;;;24.92;36.72;97038.22;6312004;28;20040;-70
2023/06/11 13:03:48;;;;;;;7.45;4.38;;;;;;;24.92;36.48;97022.91;6297306;28;20519;-70
2023/06/11 13:06:53;;;;;;;10.38;5.18;;;;;;;24.86;36.84;97023.66;6292110;28;20040;-70
2023/06/11 13:10:00;;;;;;;8.70;5.28;;;;;;;24.78;37.05;97034.50;6280911;28;20041;-70
2023/06/11 13:13:01;;;;;;;14.15;4.60;;;;;;;24.61;37.01;97023.91;6289334;28;20535;-70
2023/06/11 13:16:10;;;;;;;5.75;4.25;;;;;;;24.46;37.11;97031.13;6294770;28;20049;-68
2023/06/11 13:19:16;;;;;;;8.30;5.05;;;;;;;24.36;37.17;97033.22;6296405;28;20131;-68
2023/06/11 13:22:31;;;;;;;9.55;5.55;;;;;;;24.24;37.72;97029.28;6292536;28;20052;-69
2023/06/11 13:25:32;;;;;;;8.40;5.32;;;;;;;24.38;36.86;97041.94;6277855;28;20059;-69
2023/06/11 13:28:41;;;;;;;6.70;4.65;;;;;;;24.26;36.90;97038.84;6292877;28;20036;-68
2023/06/11 13:31:47;;;;;;;6.43;4.50;;;;;;;24.23;37.34;97041.03;6292179;28;20044;-70
2023/06/11 13:34:52;;;;;;;8.70;4.15;;;;;;;24.21;36.73;97046.63;6291094;28;20454;-68
2023/06/11 13:37:56;;;;;;;6.43;3.90;;;;;;;24.06;37.11;97049.28;6289373;28;20128;-74
2023/06/11 13:40:58;;;;;;;4.22;3.55;;;;;;;24.09;37.33;97048.91;6287363;28;20462;-70
2023/06/11 13:44:01;;;;;;;8.95;5.43;;;;;;;24.02;37.36;97050.63;6291375;28;20609;-71
2023/06/11 13:47:05;;;;;;;9.43;5.40;;;;;;;23.99;37.33;97056.38;6283969;28;20040;-69
2023/06/11 13:50:09;;;;;;;9.02;4.60;;;;;;;23.79;37.47;97047.09;6290004;28;20127;-69
2023/06/11 13:53:15;;;;;;;7.05;4.53;;;;;;;23.88;37.76;97052.22;6292241;28;20048;-71
2023/06/11 13:56:21;;;;;;;9.00;4.78;;;;;;;23.93;37.65;97060.59;6296205;28;20040;-71
2023/06/11 13:59:26;;;;;;;7.35;4.47;;;;;;;24.04;37.53;97062.03;6294328;28;20051;-71
2023/06/11 14:02:27;;;;;;;7.00;4.82;;;;;;;24.14;37.69;97062.63;6290110;28;20044;-71
2023/06/11 14:05:31;;;;;;;8.70;5.45;;;;;;;24.04;37.83;97064.72;6290809;28;20144;-70
2023/06/11 14:08:32;;;;;;;6.95;4.45;;;;;;;23.95;37.73;97068.50;6295530;28;20253;-71
2023/06/11 14:11:33;;;;;;;5.70;4.35;;;;;;;23.92;38.18;97074.22;6293064;28;20127;-70
2023/06/11 14:14:35;;;;;;;8.65;4.53;;;;;;;23.90;38.08;97076.25;6292958;28;20136;-71
2023/06/11 14:17:42;;;;;;;12.00;5.18;;;;;;;23.82;38.12;97087.06;6294492;28;20891;-71
2023/06/11 14:20:47;;;;;;;7.00;3.78;;;;;;;23.59;38.55;97087.81;6290944;28;20040;-71
2023/06/11 14:23:48;;;;;;;6.25;4.88;;;;;;;23.52;38.83;97094.91;6277668;28;20127;-71
2023/06/11 14:26:55;;;;;;;8.90;6.00;;;;;;;23.44;38.92;97102.97;6270658;28;20496;-72
2023/06/11 14:30:01;;;;;;;7.97;4.68;;;;;;;23.36;39.01;97106.56;6285137;28;20036;-71
2023/06/11 14:33:08;;;;;;;4.22;2.95;;;;;;;23.19;39.54;97111.16;6294606;28;20049;-71